sensor_id;sensor_type;location;lat;lon;timestamp;P1;durP1;ratioP1;P2;durP2;ratioP2
18196;SDS011;9224;52.422;13.024;2023-12-14T00:00:39;166.33;;;119.60;;
18196;SDS011;9224;52.422;13.024;2023-12-14T00:03:07;166.97;;;118.47;;
18196;SDS011;9224;52.422;13.024;2023-12-14T00:05:34;169.73;;;120.63;;
18196;SDS011;9224;52.422;13.024;2023-12-14T00:08:01;169.27;;;120.43;;
18196;SDS011;9224;52.422;13.024;2023-12-14T00:10:27;169.03;;;119.80;;
18196;SDS011;9224;52.422;13.024;2023-12-14T00:12:54;169.93;;;120.27;;
18196;SDS011;9224;52.422;13.024;2023-12-14T00:15:21;167.63;;;119.00;;
18196;SDS011;9224;52.422;13.024;2023-12-14T00:17:47;169.53;;;119.70;;
18196;SDS011;9224;52.422;13.024;2023-12-14T00:20:15;171.57;;;120.60;;
18196;SDS011;9224;52.422;13.024;2023-12-14T00:22:42;168.60;;;120.43;;
18196;SDS011;9224;52.422;13.024;2023-12-14T00:25:09;172.77;;;121.67;;
18196;SDS011;9224;52.422;13.024;2023-12-14T00:27:35;171.20;;;120.53;;
18196;SDS011;9224;52.422;13.024;2023-12-14T00:30:02;173.33;;;121.97;;
18196;SDS011;9224;52.422;13.024;2023-12-14T00:32:29;175.63;;;122.33;;
18196;SDS011;9224;52.422;13.024;2023-12-14T00:34:56;168.97;;;120.57;;
18196;SDS011;9224;52.422;13.024;2023-12-14T00:37:24;171.83;;;120.93;;
18196;SDS011;9224;52.422;13.024;2023-12-14T00:39:50;171.03;;;120.67;;
18196;SDS011;9224;52.422;13.024;2023-12-14T00:42:16;170.10;;;121.10;;
18196;SDS011;9224;52.422;13.024;2023-12-14T00:44:43;173.63;;;121.87;;
18196;SDS011;9224;52.422;13.024;2023-12-14T00:47:10;171.50;;;121.20;;
18196;SDS011;9224;52.422;13.024;2023-12-14T00:49:36;170.73;;;120.53;;
18196;SDS011;9224;52.422;13.024;2023-12-14T00:52:03;168.43;;;120.30;;
18196;SDS011;9224;52.422;13.024;2023-12-14T00:54:32;171.97;;;121.83;;
18196;SDS011;9224;52.422;13.024;2023-12-14T00:56:58;173.80;;;121.70;;
18196;SDS011;9224;52.422;13.024;2023-12-14T00:59:25;172.03;;;121.10;;
18196;SDS011;9224;52.422;13.024;2023-12-14T01:01:52;170.10;;;119.97;;
18196;SDS011;9224;52.422;13.024;2023-12-14T01:04:25;174.73;;;122.63;;
18196;SDS011;9224;52.422;13.024;2023-12-14T01:06:51;174.80;;;122.43;;
18196;SDS011;9224;52.422;13.024;2023-12-14T01:09:18;169.93;;;121.83;;
18196;SDS011;9224;52.422;13.024;2023-12-14T01:11:46;177.63;;;121.87;;
18196;SDS011;9224;52.422;13.024;2023-12-14T01:14:12;174.93;;;122.13;;
18196;SDS011;9224;52.422;13.024;2023-12-14T01:16:39;171.57;;;121.00;;
18196;SDS011;9224;52.422;13.024;2023-12-14T01:19:06;172.43;;;120.97;;
18196;SDS011;9224;52.422;13.024;2023-12-14T01:21:32;170.70;;;120.73;;
18196;SDS011;9224;52.422;13.024;2023-12-14T01:23:59;172.87;;;121.27;;
18196;SDS011;9224;52.422;13.024;2023-12-14T01:26:26;172.83;;;122.60;;
18196;SDS011;9224;52.422;13.024;2023-12-14T01:28:54;169.53;;;120.53;;
18196;SDS011;9224;52.422;13.024;2023-12-14T01:31:21;169.33;;;120.60;;
18196;SDS011;9224;52.422;13.024;2023-12-14T01:33:49;170.27;;;121.23;;
18196;SDS011;9224;52.422;13.024;2023-12-14T01:36:19;178.10;;;122.43;;
18196;SDS011;9224;52.422;13.024;2023-12-14T01:38:46;170.00;;;120.63;;
18196;SDS011;9224;52.422;13.024;2023-12-14T01:41:13;175.90;;;122.07;;
18196;SDS011;9224;52.422;13.024;2023-12-14T01:43:39;173.97;;;122.67;;
18196;SDS011;9224;52.422;13.024;2023-12-14T01:46:08;172.07;;;121.27;;
18196;SDS011;9224;52.422;13.024;2023-12-14T01:48:34;174.70;;;121.73;;
18196;SDS011;9224;52.422;13.024;2023-12-14T01:51:01;174.33;;;122.93;;
18196;SDS011;9224;52.422;13.024;2023-12-14T01:53:28;171.60;;;121.30;;
18196;SDS011;9224;52.422;13.024;2023-12-14T01:55:55;173.77;;;122.33;;
18196;SDS011;9224;52.422;13.024;2023-12-14T01:58:21;167.47;;;119.70;;
18196;SDS011;9224;52.422;13.024;2023-12-14T02:00:50;169.03;;;121.20;;
18196;SDS011;9224;52.422;13.024;2023-12-14T02:03:23;172.73;;;121.50;;
18196;SDS011;9224;52.422;13.024;2023-12-14T02:05:49;172.23;;;121.33;;
18196;SDS011;9224;52.422;13.024;2023-12-14T02:08:16;171.50;;;120.13;;
18196;SDS011;9224;52.422;13.024;2023-12-14T02:10:43;173.03;;;119.90;;
18196;SDS011;9224;52.422;13.024;2023-12-14T02:13:09;170.17;;;121.03;;
18196;SDS011;9224;52.422;13.024;2023-12-14T02:15:36;171.87;;;120.23;;
18196;SDS011;9224;52.422;13.024;2023-12-14T02:18:03;169.47;;;120.73;;
18196;SDS011;9224;52.422;13.024;2023-12-14T02:20:32;167.73;;;119.37;;
18196;SDS011;9224;52.422;13.024;2023-12-14T02:22:59;170.47;;;119.97;;
18196;SDS011;9224;52.422;13.024;2023-12-14T02:25:27;169.83;;;120.10;;
18196;SDS011;9224;52.422;13.024;2023-12-14T02:27:53;175.27;;;121.20;;
18196;SDS011;9224;52.422;13.024;2023-12-14T02:30:21;169.60;;;119.13;;
18196;SDS011;9224;52.422;13.024;2023-12-14T02:32:47;170.97;;;119.60;;
18196;SDS011;9224;52.422;13.024;2023-12-14T02:35:14;172.50;;;120.70;;
18196;SDS011;9224;52.422;13.024;2023-12-14T02:37:40;168.77;;;118.87;;
18196;SDS011;9224;52.422;13.024;2023-12-14T02:40:09;170.83;;;120.07;;
18196;SDS011;9224;52.422;13.024;2023-12-14T02:42:36;172.57;;;120.17;;
18196;SDS011;9224;52.422;13.024;2023-12-14T02:45:03;169.77;;;119.97;;
18196;SDS011;9224;52.422;13.024;2023-12-14T02:47:30;171.77;;;119.60;;
18196;SDS011;9224;52.422;13.024;2023-12-14T02:49:57;175.07;;;121.13;;
18196;SDS011;9224;52.422;13.024;2023-12-14T02:52:23;168.73;;;120.27;;
18196;SDS011;9224;52.422;13.024;2023-12-14T02:54:50;172.57;;;120.80;;
18196;SDS011;9224;52.422;13.024;2023-12-14T02:57:18;174.27;;;121.73;;
18196;SDS011;9224;52.422;13.024;2023-12-14T02:59:45;173.70;;;120.57;;
18196;SDS011;9224;52.422;13.024;2023-12-14T03:02:11;169.57;;;119.77;;
18196;SDS011;9224;52.422;13.024;2023-12-14T03:04:38;171.07;;;121.07;;
18196;SDS011;9224;52.422;13.024;2023-12-14T03:07:05;173.83;;;120.60;;
18196;SDS011;9224;52.422;13.024;2023-12-14T03:09:31;176.23;;;122.83;;
18196;SDS011;9224;52.422;13.024;2023-12-14T03:11:59;175.47;;;120.43;;
18196;SDS011;9224;52.422;13.024;2023-12-14T03:14:27;172.73;;;121.10;;
18196;SDS011;9224;52.422;13.024;2023-12-14T03:16:58;178.67;;;122.37;;
18196;SDS011;9224;52.422;13.024;2023-12-14T03:19:24;177.03;;;122.33;;
18196;SDS011;9224;52.422;13.024;2023-12-14T03:21:51;169.47;;;120.00;;
18196;SDS011;9224;52.422;13.024;2023-12-14T03:24:17;175.23;;;121.43;;
18196;SDS011;9224;52.422;13.024;2023-12-14T03:26:44;175.60;;;122.87;;
18196;SDS011;9224;52.422;13.024;2023-12-14T03:29:11;174.67;;;120.90;;
18196;SDS011;9224;52.422;13.024;2023-12-14T03:31:39;171.77;;;120.53;;
18196;SDS011;9224;52.422;13.024;2023-12-14T03:34:06;173.83;;;121.30;;
18196;SDS011;9224;52.422;13.024;2023-12-14T03:36:32;173.43;;;122.20;;
18196;SDS011;9224;52.422;13.024;2023-12-14T03:38:59;173.07;;;120.70;;
18196;SDS011;9224;52.422;13.024;2023-12-14T03:41:25;176.10;;;121.90;;
18196;SDS011;9224;52.422;13.024;2023-12-14T03:43:52;182.13;;;123.30;;
18196;SDS011;9224;52.422;13.024;2023-12-14T03:46:19;178.90;;;123.47;;
18196;SDS011;9224;52.422;13.024;2023-12-14T03:48:47;175.73;;;121.67;;
18196;SDS011;9224;52.422;13.024;2023-12-14T03:51:13;178.30;;;123.00;;
18196;SDS011;9224;52.422;13.024;2023-12-14T03:53:44;171.80;;;120.07;;
18196;SDS011;9224;52.422;13.024;2023-12-14T03:56:10;172.10;;;119.60;;
18196;SDS011;9224;52.422;13.024;2023-12-14T03:58:37;175.57;;;120.97;;
18196;SDS011;9224;52.422;13.024;2023-12-14T04:01:04;176.47;;;122.23;;
18196;SDS011;9224;52.422;13.024;2023-12-14T04:03:31;172.97;;;121.33;;
18196;SDS011;9224;52.422;13.024;2023-12-14T04:05:59;178.43;;;122.87;;
18196;SDS011;9224;52.422;13.024;2023-12-14T04:08:25;172.93;;;121.00;;
18196;SDS011;9224;52.422;13.024;2023-12-14T04:10:52;176.70;;;121.83;;
18196;SDS011;9224;52.422;13.024;2023-12-14T04:13:18;172.17;;;120.43;;
18196;SDS011;9224;52.422;13.024;2023-12-14T04:15:45;175.43;;;121.27;;
18196;SDS011;9224;52.422;13.024;2023-12-14T04:18:12;168.40;;;119.73;;
18196;SDS011;9224;52.422;13.024;2023-12-14T04:20:39;173.07;;;119.93;;
18196;SDS011;9224;52.422;13.024;2023-12-14T04:23:07;168.93;;;119.17;;
18196;SDS011;9224;52.422;13.024;2023-12-14T04:25:33;175.67;;;120.63;;
18196;SDS011;9224;52.422;13.024;2023-12-14T04:28:00;179.20;;;122.20;;
18196;SDS011;9224;52.422;13.024;2023-12-14T04:30:26;173.97;;;121.07;;
18196;SDS011;9224;52.422;13.024;2023-12-14T04:32:53;174.90;;;122.10;;
18196;SDS011;9224;52.422;13.024;2023-12-14T04:35:20;172.73;;;120.97;;
18196;SDS011;9224;52.422;13.024;2023-12-14T04:37:47;171.10;;;120.57;;
18196;SDS011;9224;52.422;13.024;2023-12-14T04:40:15;179.70;;;122.50;;
18196;SDS011;9224;52.422;13.024;2023-12-14T04:42:42;173.23;;;121.63;;
18196;SDS011;9224;52.422;13.024;2023-12-14T04:45:08;172.87;;;121.60;;
18196;SDS011;9224;52.422;13.024;2023-12-14T04:47:35;172.47;;;121.57;;
18196;SDS011;9224;52.422;13.024;2023-12-14T04:50:02;174.80;;;122.33;;
18196;SDS011;9224;52.422;13.024;2023-12-14T04:52:29;168.70;;;120.43;;
18196;SDS011;9224;52.422;13.024;2023-12-14T04:54:55;174.53;;;121.50;;
18196;SDS011;9224;52.422;13.024;2023-12-14T04:57:23;172.73;;;120.87;;
18196;SDS011;9224;52.422;13.024;2023-12-14T04:59:50;167.50;;;118.37;;
18196;SDS011;9224;52.422;13.024;2023-12-14T05:02:17;174.60;;;121.67;;
18196;SDS011;9224;52.422;13.024;2023-12-14T05:04:43;172.10;;;120.43;;
18196;SDS011;9224;52.422;13.024;2023-12-14T05:07:10;175.40;;;121.33;;
18196;SDS011;9224;52.422;13.024;2023-12-14T05:09:36;176.33;;;122.57;;
18196;SDS011;9224;52.422;13.024;2023-12-14T05:12:03;171.13;;;121.53;;
18196;SDS011;9224;52.422;13.024;2023-12-14T05:14:32;171.70;;;121.27;;
18196;SDS011;9224;52.422;13.024;2023-12-14T05:16:58;175.90;;;122.37;;
18196;SDS011;9224;52.422;13.024;2023-12-14T05:19:25;173.83;;;121.57;;
18196;SDS011;9224;52.422;13.024;2023-12-14T05:21:52;173.30;;;121.83;;
18196;SDS011;9224;52.422;13.024;2023-12-14T05:24:19;172.37;;;121.10;;
18196;SDS011;9224;52.422;13.024;2023-12-14T05:26:46;176.63;;;121.50;;
18196;SDS011;9224;52.422;13.024;2023-12-14T05:29:15;177.00;;;121.97;;
18196;SDS011;9224;52.422;13.024;2023-12-14T05:31:43;180.53;;;122.93;;
18196;SDS011;9224;52.422;13.024;2023-12-14T05:34:10;175.53;;;121.07;;
18196;SDS011;9224;52.422;13.024;2023-12-14T05:36:36;175.97;;;122.33;;
18196;SDS011;9224;52.422;13.024;2023-12-14T05:39:03;181.10;;;123.83;;
18196;SDS011;9224;52.422;13.024;2023-12-14T05:41:30;175.40;;;121.47;;
18196;SDS011;9224;52.422;13.024;2023-12-14T05:43:56;176.57;;;123.23;;
18196;SDS011;9224;52.422;13.024;2023-12-14T05:46:23;175.80;;;122.83;;
18196;SDS011;9224;52.422;13.024;2023-12-14T05:48:51;174.80;;;122.93;;
18196;SDS011;9224;52.422;13.024;2023-12-14T05:51:27;175.13;;;122.13;;
18196;SDS011;9224;52.422;13.024;2023-12-14T05:53:55;179.33;;;123.00;;
18196;SDS011;9224;52.422;13.024;2023-12-14T05:56:21;173.27;;;122.00;;
18196;SDS011;9224;52.422;13.024;2023-12-14T05:58:48;174.60;;;123.23;;
18196;SDS011;9224;52.422;13.024;2023-12-14T06:01:16;174.10;;;121.97;;
18196;SDS011;9224;52.422;13.024;2023-12-14T06:03:43;174.70;;;121.30;;
18196;SDS011;9224;52.422;13.024;2023-12-14T06:06:11;173.23;;;121.63;;
18196;SDS011;9224;52.422;13.024;2023-12-14T06:08:39;178.30;;;123.20;;
18196;SDS011;9224;52.422;13.024;2023-12-14T06:11:06;174.17;;;121.27;;
18196;SDS011;9224;52.422;13.024;2023-12-14T06:13:32;172.67;;;120.40;;
18196;SDS011;9224;52.422;13.024;2023-12-14T06:15:59;175.47;;;121.77;;
18196;SDS011;9224;52.422;13.024;2023-12-14T06:18:26;171.97;;;121.10;;
18196;SDS011;9224;52.422;13.024;2023-12-14T06:20:53;170.97;;;120.27;;
18196;SDS011;9224;52.422;13.024;2023-12-14T06:23:21;169.93;;;119.47;;
18196;SDS011;9224;52.422;13.024;2023-12-14T06:25:48;172.93;;;120.10;;
18196;SDS011;9224;52.422;13.024;2023-12-14T06:28:14;179.07;;;123.10;;
18196;SDS011;9224;52.422;13.024;2023-12-14T06:30:41;176.53;;;120.87;;
18196;SDS011;9224;52.422;13.024;2023-12-14T06:33:07;173.60;;;121.07;;
18196;SDS011;9224;52.422;13.024;2023-12-14T06:35:34;173.10;;;120.60;;
18196;SDS011;9224;52.422;13.024;2023-12-14T06:38:00;182.20;;;123.50;;
18196;SDS011;9224;52.422;13.024;2023-12-14T06:40:28;173.03;;;120.50;;
18196;SDS011;9224;52.422;13.024;2023-12-14T06:42:55;172.70;;;120.57;;
18196;SDS011;9224;52.422;13.024;2023-12-14T06:45:22;170.10;;;119.57;;
18196;SDS011;9224;52.422;13.024;2023-12-14T06:47:48;171.67;;;120.73;;
18196;SDS011;9224;52.422;13.024;2023-12-14T06:50:15;169.13;;;118.60;;
18196;SDS011;9224;52.422;13.024;2023-12-14T06:52:42;174.73;;;121.60;;
18196;SDS011;9224;52.422;13.024;2023-12-14T06:55:08;169.50;;;119.97;;
18196;SDS011;9224;52.422;13.024;2023-12-14T06:57:37;170.60;;;119.23;;
18196;SDS011;9224;52.422;13.024;2023-12-14T07:00:04;171.00;;;119.67;;
18196;SDS011;9224;52.422;13.024;2023-12-14T07:02:31;170.10;;;120.13;;
18196;SDS011;9224;52.422;13.024;2023-12-14T07:04:58;166.90;;;118.40;;
18196;SDS011;9224;52.422;13.024;2023-12-14T07:07:24;169.17;;;120.07;;
18196;SDS011;9224;52.422;13.024;2023-12-14T07:09:51;168.67;;;119.27;;
18196;SDS011;9224;52.422;13.024;2023-12-14T07:12:17;169.80;;;119.90;;
18196;SDS011;9224;52.422;13.024;2023-12-14T07:14:45;173.07;;;120.23;;
18196;SDS011;9224;52.422;13.024;2023-12-14T07:17:12;168.53;;;119.40;;
18196;SDS011;9224;52.422;13.024;2023-12-14T07:19:39;169.03;;;120.00;;
18196;SDS011;9224;52.422;13.024;2023-12-14T07:22:05;168.87;;;119.50;;
18196;SDS011;9224;52.422;13.024;2023-12-14T07:24:32;170.53;;;120.43;;
18196;SDS011;9224;52.422;13.024;2023-12-14T07:26:58;170.07;;;119.63;;
18196;SDS011;9224;52.422;13.024;2023-12-14T07:29:25;171.80;;;119.43;;
18196;SDS011;9224;52.422;13.024;2023-12-14T07:31:53;176.60;;;121.17;;
18196;SDS011;9224;52.422;13.024;2023-12-14T07:34:20;172.73;;;120.67;;
18196;SDS011;9224;52.422;13.024;2023-12-14T07:36:47;170.73;;;119.50;;
18196;SDS011;9224;52.422;13.024;2023-12-14T07:39:14;172.07;;;119.77;;
18196;SDS011;9224;52.422;13.024;2023-12-14T07:41:42;174.33;;;121.13;;
18196;SDS011;9224;52.422;13.024;2023-12-14T07:44:08;170.33;;;120.03;;
18196;SDS011;9224;52.422;13.024;2023-12-14T07:46:35;168.90;;;119.83;;
18196;SDS011;9224;52.422;13.024;2023-12-14T07:49:06;171.07;;;119.93;;
18196;SDS011;9224;52.422;13.024;2023-12-14T07:51:32;171.03;;;119.97;;
18196;SDS011;9224;52.422;13.024;2023-12-14T07:53:59;175.27;;;120.97;;
18196;SDS011;9224;52.422;13.024;2023-12-14T07:56:25;170.97;;;119.73;;
18196;SDS011;9224;52.422;13.024;2023-12-14T07:58:55;172.53;;;120.80;;
18196;SDS011;9224;52.422;13.024;2023-12-14T08:01:21;174.63;;;121.07;;
18196;SDS011;9224;52.422;13.024;2023-12-14T08:03:48;169.60;;;120.50;;
18196;SDS011;9224;52.422;13.024;2023-12-14T08:06:16;172.83;;;121.17;;
18196;SDS011;9224;52.422;13.024;2023-12-14T08:08:43;171.90;;;120.43;;
18196;SDS011;9224;52.422;13.024;2023-12-14T08:11:09;170.73;;;120.50;;
18196;SDS011;9224;52.422;13.024;2023-12-14T08:13:36;178.53;;;122.33;;
18196;SDS011;9224;52.422;13.024;2023-12-14T08:16:03;173.63;;;121.50;;
18196;SDS011;9224;52.422;13.024;2023-12-14T08:18:30;173.80;;;120.07;;
18196;SDS011;9224;52.422;13.024;2023-12-14T08:20:56;172.20;;;120.53;;
18196;SDS011;9224;52.422;13.024;2023-12-14T08:23:24;170.90;;;120.80;;
18196;SDS011;9224;52.422;13.024;2023-12-14T08:25:52;169.77;;;120.23;;
18196;SDS011;9224;52.422;13.024;2023-12-14T08:28:22;171.10;;;120.03;;
18196;SDS011;9224;52.422;13.024;2023-12-14T08:30:48;172.67;;;121.20;;
18196;SDS011;9224;52.422;13.024;2023-12-14T08:33:15;171.30;;;121.10;;
18196;SDS011;9224;52.422;13.024;2023-12-14T08:35:42;169.23;;;119.13;;
18196;SDS011;9224;52.422;13.024;2023-12-14T08:38:09;168.77;;;120.67;;
18196;SDS011;9224;52.422;13.024;2023-12-14T08:40:37;169.73;;;121.43;;
18196;SDS011;9224;52.422;13.024;2023-12-14T08:43:05;168.33;;;120.37;;
18196;SDS011;9224;52.422;13.024;2023-12-14T08:45:32;167.23;;;119.80;;
18196;SDS011;9224;52.422;13.024;2023-12-14T08:47:58;170.63;;;120.40;;
18196;SDS011;9224;52.422;13.024;2023-12-14T08:50:25;173.20;;;121.50;;
18196;SDS011;9224;52.422;13.024;2023-12-14T08:52:52;176.03;;;121.90;;
18196;SDS011;9224;52.422;13.024;2023-12-14T08:55:19;169.27;;;120.77;;
18196;SDS011;9224;52.422;13.024;2023-12-14T08:57:47;171.40;;;121.70;;
18196;SDS011;9224;52.422;13.024;2023-12-14T09:00:13;167.93;;;120.10;;
18196;SDS011;9224;52.422;13.024;2023-12-14T09:02:41;172.67;;;121.10;;
18196;SDS011;9224;52.422;13.024;2023-12-14T09:05:09;169.70;;;120.80;;
18196;SDS011;9224;52.422;13.024;2023-12-14T09:07:35;175.50;;;123.53;;
18196;SDS011;9224;52.422;13.024;2023-12-14T09:10:02;173.17;;;121.60;;
18196;SDS011;9224;52.422;13.024;2023-12-14T09:12:29;172.93;;;121.77;;
18196;SDS011;9224;52.422;13.024;2023-12-14T09:14:57;173.43;;;121.97;;
18196;SDS011;9224;52.422;13.024;2023-12-14T09:17:24;175.33;;;122.40;;
18196;SDS011;9224;52.422;13.024;2023-12-14T09:19:51;176.10;;;122.77;;
18196;SDS011;9224;52.422;13.024;2023-12-14T09:22:17;174.73;;;122.80;;
18196;SDS011;9224;52.422;13.024;2023-12-14T09:24:44;175.23;;;123.77;;
18196;SDS011;9224;52.422;13.024;2023-12-14T09:27:11;172.53;;;121.90;;
18196;SDS011;9224;52.422;13.024;2023-12-14T09:29:37;182.43;;;124.90;;
18196;SDS011;9224;52.422;13.024;2023-12-14T09:32:06;174.63;;;121.87;;
18196;SDS011;9224;52.422;13.024;2023-12-14T09:34:34;171.70;;;121.93;;
18196;SDS011;9224;52.422;13.024;2023-12-14T09:37:00;175.90;;;123.70;;
18196;SDS011;9224;52.422;13.024;2023-12-14T09:39:27;173.33;;;122.23;;
18196;SDS011;9224;52.422;13.024;2023-12-14T09:42:00;172.43;;;122.27;;
18196;SDS011;9224;52.422;13.024;2023-12-14T09:44:29;171.57;;;122.13;;
18196;SDS011;9224;52.422;13.024;2023-12-14T09:46:56;180.60;;;125.47;;
18196;SDS011;9224;52.422;13.024;2023-12-14T09:49:29;175.50;;;123.83;;
18196;SDS011;9224;52.422;13.024;2023-12-14T09:51:56;177.70;;;125.33;;
18196;SDS011;9224;52.422;13.024;2023-12-14T09:54:23;179.00;;;125.87;;
18196;SDS011;9224;52.422;13.024;2023-12-14T09:56:49;181.60;;;124.67;;
18196;SDS011;9224;52.422;13.024;2023-12-14T09:59:17;175.77;;;124.23;;
18196;SDS011;9224;52.422;13.024;2023-12-14T10:01:44;178.23;;;123.83;;
18196;SDS011;9224;52.422;13.024;2023-12-14T10:04:12;176.97;;;123.97;;
18196;SDS011;9224;52.422;13.024;2023-12-14T10:06:41;177.77;;;124.27;;
18196;SDS011;9224;52.422;13.024;2023-12-14T10:09:09;175.57;;;123.93;;
18196;SDS011;9224;52.422;13.024;2023-12-14T10:11:38;176.27;;;123.80;;
18196;SDS011;9224;52.422;13.024;2023-12-14T10:14:13;177.33;;;124.13;;
18196;SDS011;9224;52.422;13.024;2023-12-14T10:16:44;179.53;;;124.40;;
18196;SDS011;9224;52.422;13.024;2023-12-14T10:19:11;180.43;;;125.37;;
18196;SDS011;9224;52.422;13.024;2023-12-14T10:21:37;175.77;;;123.40;;
18196;SDS011;9224;52.422;13.024;2023-12-14T10:24:06;177.90;;;124.03;;
18196;SDS011;9224;52.422;13.024;2023-12-14T10:26:32;179.47;;;125.50;;
18196;SDS011;9224;52.422;13.024;2023-12-14T10:28:59;180.10;;;124.03;;
18196;SDS011;9224;52.422;13.024;2023-12-14T10:31:28;177.17;;;122.23;;
18196;SDS011;9224;52.422;13.024;2023-12-14T10:33:54;177.17;;;123.43;;
18196;SDS011;9224;52.422;13.024;2023-12-14T10:36:22;175.63;;;122.50;;
18196;SDS011;9224;52.422;13.024;2023-12-14T10:38:56;174.20;;;122.53;;
18196;SDS011;9224;52.422;13.024;2023-12-14T10:41:25;174.47;;;122.33;;
18196;SDS011;9224;52.422;13.024;2023-12-14T10:43:55;171.93;;;121.73;;
18196;SDS011;9224;52.422;13.024;2023-12-14T10:46:22;171.30;;;121.80;;
18196;SDS011;9224;52.422;13.024;2023-12-14T10:48:52;176.23;;;123.00;;
18196;SDS011;9224;52.422;13.024;2023-12-14T10:51:20;176.87;;;123.40;;
18196;SDS011;9224;52.422;13.024;2023-12-14T10:53:48;172.73;;;121.13;;
18196;SDS011;9224;52.422;13.024;2023-12-14T10:56:17;174.13;;;122.47;;
18196;SDS011;9224;52.422;13.024;2023-12-14T10:58:52;177.10;;;123.67;;
18196;SDS011;9224;52.422;13.024;2023-12-14T11:01:20;182.73;;;124.97;;
18196;SDS011;9224;52.422;13.024;2023-12-14T11:03:49;181.93;;;125.13;;
18196;SDS011;9224;52.422;13.024;2023-12-14T11:06:26;179.43;;;123.70;;
18196;SDS011;9224;52.422;13.024;2023-12-14T11:08:56;178.87;;;123.50;;
18196;SDS011;9224;52.422;13.024;2023-12-14T11:11:27;181.63;;;125.60;;
18196;SDS011;9224;52.422;13.024;2023-12-14T11:13:56;181.60;;;125.20;;
18196;SDS011;9224;52.422;13.024;2023-12-14T11:16:22;184.87;;;125.53;;
18196;SDS011;9224;52.422;13.024;2023-12-14T11:18:58;183.17;;;125.17;;
18196;SDS011;9224;52.422;13.024;2023-12-14T11:22:11;183.27;;;124.43;;
18196;SDS011;9224;52.422;13.024;2023-12-14T11:24:50;186.93;;;126.07;;
18196;SDS011;9224;52.422;13.024;2023-12-14T11:27:19;179.53;;;124.57;;
18196;SDS011;9224;52.422;13.024;2023-12-14T11:29:48;181.37;;;126.07;;
18196;SDS011;9224;52.422;13.024;2023-12-14T11:32:16;182.70;;;125.87;;
18196;SDS011;9224;52.422;13.024;2023-12-14T11:34:45;182.30;;;124.37;;
18196;SDS011;9224;52.422;13.024;2023-12-14T11:37:12;180.73;;;125.33;;
18196;SDS011;9224;52.422;13.024;2023-12-14T11:39:38;181.30;;;125.33;;
18196;SDS011;9224;52.422;13.024;2023-12-14T11:42:05;182.70;;;126.13;;
18196;SDS011;9224;52.422;13.024;2023-12-14T11:44:34;178.60;;;124.47;;
18196;SDS011;9224;52.422;13.024;2023-12-14T11:47:03;180.87;;;124.73;;
18196;SDS011;9224;52.422;13.024;2023-12-14T11:49:29;179.37;;;124.40;;
18196;SDS011;9224;52.422;13.024;2023-12-14T11:51:57;180.90;;;125.23;;
18196;SDS011;9224;52.422;13.024;2023-12-14T11:54:23;181.13;;;124.70;;
18196;SDS011;9224;52.422;13.024;2023-12-14T11:56:50;181.03;;;124.30;;
18196;SDS011;9224;52.422;13.024;2023-12-14T11:59:17;178.87;;;124.60;;
18196;SDS011;9224;52.422;13.024;2023-12-14T12:01:55;179.10;;;124.77;;
18196;SDS011;9224;52.422;13.024;2023-12-14T12:04:24;180.57;;;125.27;;
18196;SDS011;9224;52.422;13.024;2023-12-14T12:06:58;183.63;;;126.70;;
18196;SDS011;9224;52.422;13.024;2023-12-14T12:09:35;186.13;;;126.60;;
18196;SDS011;9224;52.422;13.024;2023-12-14T12:12:05;181.67;;;125.20;;
18196;SDS011;9224;52.422;13.024;2023-12-14T12:14:37;183.20;;;127.23;;
18196;SDS011;9224;52.422;13.024;2023-12-14T12:17:18;185.67;;;125.47;;
18196;SDS011;9224;52.422;13.024;2023-12-14T12:19:46;185.57;;;125.97;;
18196;SDS011;9224;52.422;13.024;2023-12-14T12:22:13;178.03;;;123.97;;
18196;SDS011;9224;52.422;13.024;2023-12-14T12:24:39;181.33;;;125.33;;
18196;SDS011;9224;52.422;13.024;2023-12-14T12:27:06;180.90;;;125.30;;
18196;SDS011;9224;52.422;13.024;2023-12-14T12:29:34;176.50;;;122.90;;
18196;SDS011;9224;52.422;13.024;2023-12-14T12:32:00;181.50;;;126.17;;
18196;SDS011;9224;52.422;13.024;2023-12-14T12:34:27;182.03;;;125.40;;
18196;SDS011;9224;52.422;13.024;2023-12-14T12:36:55;182.43;;;125.77;;
18196;SDS011;9224;52.422;13.024;2023-12-14T12:42:19;181.57;;;125.47;;
18196;SDS011;9224;52.422;13.024;2023-12-14T12:44:46;186.40;;;125.73;;
18196;SDS011;9224;52.422;13.024;2023-12-14T12:47:13;182.77;;;126.40;;
18196;SDS011;9224;52.422;13.024;2023-12-14T12:49:40;185.27;;;127.37;;
18196;SDS011;9224;52.422;13.024;2023-12-14T12:52:08;178.67;;;124.93;;
18196;SDS011;9224;52.422;13.024;2023-12-14T12:54:34;182.93;;;125.83;;
18196;SDS011;9224;52.422;13.024;2023-12-14T12:57:01;178.67;;;123.77;;
18196;SDS011;9224;52.422;13.024;2023-12-14T12:59:28;182.33;;;126.07;;
18196;SDS011;9224;52.422;13.024;2023-12-14T13:01:54;180.80;;;125.00;;
18196;SDS011;9224;52.422;13.024;2023-12-14T13:04:21;181.37;;;125.20;;
18196;SDS011;9224;52.422;13.024;2023-12-14T13:06:48;178.97;;;124.73;;
18196;SDS011;9224;52.422;13.024;2023-12-14T13:09:17;176.97;;;122.97;;
18196;SDS011;9224;52.422;13.024;2023-12-14T13:11:45;178.87;;;124.13;;
18196;SDS011;9224;52.422;13.024;2023-12-14T13:14:12;181.80;;;124.73;;
18196;SDS011;9224;52.422;13.024;2023-12-14T13:16:40;181.97;;;125.57;;
18196;SDS011;9224;52.422;13.024;2023-12-14T13:19:08;179.67;;;125.43;;
18196;SDS011;9224;52.422;13.024;2023-12-14T13:21:34;198.20;;;134.17;;
18196;SDS011;9224;52.422;13.024;2023-12-14T13:24:01;182.13;;;127.03;;
18196;SDS011;9224;52.422;13.024;2023-12-14T13:26:30;178.77;;;124.80;;
18196;SDS011;9224;52.422;13.024;2023-12-14T13:28:57;177.73;;;124.53;;
18196;SDS011;9224;52.422;13.024;2023-12-14T13:31:23;178.37;;;124.03;;
18196;SDS011;9224;52.422;13.024;2023-12-14T13:33:50;179.23;;;125.37;;
18196;SDS011;9224;52.422;13.024;2023-12-14T13:36:18;179.27;;;124.20;;
18196;SDS011;9224;52.422;13.024;2023-12-14T13:38:45;180.57;;;124.13;;
18196;SDS011;9224;52.422;13.024;2023-12-14T13:41:12;179.80;;;124.40;;
18196;SDS011;9224;52.422;13.024;2023-12-14T13:43:40;177.20;;;124.20;;
18196;SDS011;9224;52.422;13.024;2023-12-14T13:46:06;176.77;;;123.27;;
18196;SDS011;9224;52.422;13.024;2023-12-14T13:48:35;177.33;;;124.63;;
18196;SDS011;9224;52.422;13.024;2023-12-14T13:51:02;176.80;;;124.10;;
18196;SDS011;9224;52.422;13.024;2023-12-14T13:53:28;178.30;;;123.77;;
18196;SDS011;9224;52.422;13.024;2023-12-14T13:55:55;176.83;;;124.13;;
18196;SDS011;9224;52.422;13.024;2023-12-14T13:58:22;176.13;;;122.33;;
18196;SDS011;9224;52.422;13.024;2023-12-14T14:00:51;178.70;;;124.47;;